Time;durP1;ratioP1;P1;durP2;ratioP2;P2;SDS_P1;SDS_P2;PMS_P1;PMS_P2;Temp;Humidity;BMP_temperature;BMP_pressure;BME280_temperature;BME280_humidity;BME280_pressure;Samples;Min_cycle;Max_cycle;Signal;HPM_P1;HPM_P2
2021/11/07 00:01:07;;;;;;;121.78;110.18;;;;;;;6.77;100.00;102199.34;5048615;28;20050;-77
2021/11/07 00:03:40;;;;;;;121.75;109.38;;;;;;;6.67;100.00;102196.75;5042448;28;20054;-78
2021/11/07 00:06:11;;;;;;;;;;;;;;;6.47;100.00;102210.97;5043638;28;20150;-77
2021/11/07 00:08:55;;;;;;;115.30;104.20;;;;;;;6.49;100.00;102199.28;5047242;28;20377;-77
2021/11/07 00:11:25;;;;;;;143.25;128.55;;;;;;;6.72;100.00;102191.88;5039444;28;20440;-77
2021/11/07 00:13:53;;;;;;;124.47;111.88;;;;;;;6.63;100.00;102187.47;5045750;28;20048;-80
2021/11/07 00:16:24;;;;;;;120.88;108.40;;;;;;;6.84;100.00;102196.00;5035243;28;20053;-81
2021/11/07 00:21:42;;;;;;;146.55;132.88;;;;;;;6.82;100.00;102190.00;5041354;28;20051;-78
2021/11/07 00:24:13;;;;;;;153.40;136.73;;;;;;;6.76;100.00;102193.22;5039786;28;20049;-77
2021/11/07 00:26:50;;;;;;;143.07;129.23;;;;;;;6.67;100.00;102185.34;5043654;28;20051;-76
2021/11/07 00:29:20;;;;;;;134.70;120.85;;;;;;;6.52;100.00;102184.97;5044879;28;20053;-78
2021/11/07 00:31:51;;;;;;;157.75;136.45;;;;;;;6.69;100.00;102178.09;5042599;28;20465;-78
2021/11/07 00:37:06;;;;;;;116.10;105.18;;;;;;;6.64;100.00;102189.09;5016377;28;20068;-77
2021/11/07 00:39:41;;;;;;;123.85;111.65;;;;;;;6.79;100.00;102184.19;5048364;28;20144;-76
2021/11/07 00:42:13;;;;;;;131.18;118.35;;;;;;;6.96;100.00;102175.50;5036879;28;20127;-77
2021/11/07 00:44:47;;;;;;;134.50;120.90;;;;;;;7.05;100.00;102179.91;5039834;28;20061;-76
2021/11/07 00:47:27;;;;;;;136.18;121.82;;;;;;;6.83;100.00;102182.91;5041639;28;20052;-78
2021/11/07 00:49:57;;;;;;;129.85;117.72;;;;;;;6.63;100.00;102179.53;5035773;28;20508;-78
2021/11/07 00:52:29;;;;;;;126.10;114.25;;;;;;;6.89;100.00;102177.88;5035497;28;20049;-76
2021/11/07 00:55:03;;;;;;;157.10;139.48;;;;;;;6.86;100.00;102172.06;5037361;28;20419;-76
2021/11/07 00:57:39;;;;;;;140.23;125.05;;;;;;;6.91;100.00;102184.84;5036770;28;20127;-77
2021/11/07 01:00:13;;;;;;;130.60;116.35;;;;;;;6.98;100.00;102173.53;5038012;28;20415;-78
2021/11/07 01:02:41;;;;;;;115.20;104.50;;;;;;;6.97;100.00;102179.81;5038827;28;20053;-76
2021/11/07 01:05:14;;;;;;;129.65;116.90;;;;;;;7.21;100.00;102189.84;5034652;28;20057;-79
2021/11/07 01:07:41;;;;;;;132.45;107.57;;;;;;;6.79;100.00;102185.03;5036032;28;20053;-76
2021/11/07 01:10:10;;;;;;;126.47;108.63;;;;;;;6.98;100.00;102172.69;5044358;28;20115;-77
2021/11/07 01:12:37;;;;;;;125.78;110.65;;;;;;;6.90;100.00;102165.53;5040139;28;20103;-76
2021/11/07 01:15:07;;;;;;;129.13;108.68;;;;;;;7.00;100.00;102173.41;5044253;28;20631;-80
2021/11/07 01:17:34;;;;;;;137.10;114.68;;;;;;;7.02;100.00;102169.63;5036312;28;20063;-76
2021/11/07 01:20:01;;;;;;;127.07;113.00;;;;;;;6.78;100.00;102169.34;5045833;28;20087;-75
2021/11/07 01:22:37;;;;;;;124.63;111.38;;;;;;;6.59;100.00;102178.13;5042249;28;20050;-76
2021/11/07 01:25:04;;;;;;;133.13;119.60;;;;;;;6.83;100.00;102173.19;5036459;28;20061;-76
2021/11/07 01:27:36;;;;;;;120.65;109.07;;;;;;;6.81;100.00;102175.16;5037605;28;20139;-77
2021/11/07 01:30:05;;;;;;;106.47;96.45;;;;;;;6.83;100.00;102167.06;5032522;28;20504;-75
2021/11/07 01:32:37;;;;;;;122.95;110.70;;;;;;;6.92;100.00;102166.19;5042140;28;20048;-77
2021/11/07 01:35:09;;;;;;;146.40;127.05;;;;;;;6.85;100.00;102171.22;5040060;28;20049;-75
2021/11/07 01:37:41;;;;;;;126.50;112.85;;;;;;;6.75;100.00;102161.69;5031565;28;20059;-77
2021/11/07 01:40:11;;;;;;;115.97;103.47;;;;;;;6.59;100.00;102164.94;5043988;28;20049;-77
2021/11/07 01:42:42;;;;;;;112.45;101.15;;;;;;;6.61;100.00;102163.00;5034215;28;20136;-76
2021/11/07 01:45:15;;;;;;;136.82;122.75;;;;;;;6.81;100.00;102159.31;5029213;28;21343;-75
2021/11/07 01:47:47;;;;;;;130.20;117.57;;;;;;;6.48;100.00;102160.69;5029212;28;20057;-76
2021/11/07 01:50:14;;;;;;;129.63;115.95;;;;;;;6.94;100.00;102168.69;5039485;28;20057;-78
2021/11/07 01:52:42;;;;;;;138.27;123.32;;;;;;;6.89;100.00;102162.03;5042760;28;20052;-77
2021/11/07 01:55:15;;;;;;;122.50;108.53;;;;;;;7.05;100.00;102160.56;5039189;28;20057;-77
2021/11/07 01:57:43;;;;;;;;;;;;;;;6.88;100.00;102154.25;5041359;28;20049;-77
2021/11/07 02:00:16;;;;;;;136.07;115.72;;;;;;;6.82;100.00;102150.41;5048621;28;19947;-76
2021/11/07 02:02:43;;;;;;;125.35;109.55;;;;;;;6.43;100.00;102158.47;5036862;28;20061;-76
2021/11/07 02:05:10;;;;;;;135.75;117.90;;;;;;;6.73;100.00;102159.19;5046778;28;20063;-77
2021/11/07 02:07:37;;;;;;;108.57;97.05;;;;;;;6.60;100.00;102159.53;5042478;28;20056;-77
2021/11/07 02:10:10;;;;;;;120.47;107.75;;;;;;;6.77;100.00;102157.91;5042287;28;20045;-77
2021/11/07 02:12:37;;;;;;;115.70;103.80;;;;;;;6.49;100.00;102157.06;5041261;28;20057;-75
2021/11/07 02:15:08;;;;;;;122.60;109.28;;;;;;;6.45;100.00;102160.97;5037577;28;20056;-81
2021/11/07 02:17:35;;;;;;;109.00;97.47;;;;;;;6.72;100.00;102154.03;5041356;28;20046;-76
2021/11/07 02:20:07;;;;;;;126.53;112.60;;;;;;;6.98;100.00;102154.22;5049658;28;20106;-77
2021/11/07 02:22:36;;;;;;;139.45;125.72;;;;;;;7.27;100.00;102148.75;5044590;28;20060;-76
2021/11/07 02:25:05;;;;;;;123.40;110.80;;;;;;;7.14;100.00;102141.22;5042357;28;20126;-77
2021/11/07 02:27:32;;;;;;;121.70;108.28;;;;;;;6.87;100.00;102142.88;5037053;28;20049;-76
2021/11/07 02:29:58;;;;;;;110.35;98.80;;;;;;;6.70;100.00;102141.00;5041031;28;20434;-75
2021/11/07 02:32:26;;;;;;;107.60;95.75;;;;;;;6.72;100.00;102138.19;5037443;28;20102;-75
2021/11/07 02:34:53;;;;;;;108.88;97.72;;;;;;;6.80;100.00;102130.38;5033838;28;20069;-76
2021/11/07 02:37:20;;;;;;;112.25;101.20;;;;;;;6.87;100.00;102127.03;5036995;28;20056;-78
2021/11/07 02:39:48;;;;;;;111.75;99.50;;;;;;;6.93;100.00;102120.31;5036251;28;20111;-77
2021/11/07 02:42:15;;;;;;;106.25;95.55;;;;;;;6.62;100.00;102114.50;5037448;28;20144;-76
2021/11/07 02:44:45;;;;;;;113.70;102.43;;;;;;;6.83;100.00;102111.59;5038209;28;20063;-77
2021/11/07 02:47:14;;;;;;;111.07;99.97;;;;;;;6.98;100.00;102109.31;5036328;28;20410;-75
2021/11/07 02:49:42;;;;;;;112.38;101.20;;;;;;;7.16;100.00;102110.16;5047146;28;20057;-75
2021/11/07 02:52:12;;;;;;;107.25;95.20;;;;;;;6.88;100.00;102101.44;5035987;28;20049;-75
2021/11/07 02:54:39;;;;;;;113.53;101.55;;;;;;;6.85;100.00;102094.63;5036399;28;20061;-75
2021/11/07 02:57:10;;;;;;;106.65;96.57;;;;;;;6.61;100.00;102097.00;5038145;28;20780;-74
2021/11/07 02:59:39;;;;;;;116.35;105.25;;;;;;;6.72;100.00;102093.31;5040021;28;20184;-77
2021/11/07 03:02:07;;;;;;;119.05;108.15;;;;;;;6.78;100.00;102087.47;5156410;22;20049;-77
2021/11/07 03:04:35;;;;;;;125.05;113.82;;;;;;;6.86;100.00;102085.72;5044705;28;20439;-76
2021/11/07 03:07:02;;;;;;;115.47;104.32;;;;;;;6.86;100.00;102085.72;5038607;28;20492;-75
2021/11/07 03:09:31;;;;;;;110.90;101.03;;;;;;;6.78;100.00;102083.00;5040069;28;20115;-75
2021/11/07 03:11:59;;;;;;;110.53;100.05;;;;;;;6.96;100.00;102092.75;5038945;28;20115;-76
2021/11/07 03:14:29;;;;;;;112.97;102.40;;;;;;;7.19;100.00;102099.28;5047062;28;20045;-78
2021/11/07 03:16:57;;;;;;;117.35;106.22;;;;;;;7.28;100.00;102101.03;5042315;28;20057;-77
2021/11/07 03:19:27;;;;;;;122.50;111.72;;;;;;;7.47;100.00;102097.41;5045966;28;20049;-77
2021/11/07 03:21:55;;;;;;;118.28;107.30;;;;;;;7.49;100.00;102091.97;5047260;28;20467;-76
2021/11/07 03:24:23;;;;;;;116.05;105.40;;;;;;;7.37;100.00;102085.25;5037623;28;20507;-77
2021/11/07 03:26:51;;;;;;;125.32;113.55;;;;;;;7.38;100.00;102069.22;5046764;28;20106;-76
2021/11/07 03:29:18;;;;;;;151.02;137.10;;;;;;;7.29;100.00;102056.94;5041273;28;20057;-78
2021/11/07 03:31:50;;;;;;;130.95;119.38;;;;;;;6.95;100.00;102056.78;5046927;28;20053;-77
2021/11/07 03:34:25;;;;;;;114.13;103.47;;;;;;;6.81;100.00;102050.19;5039711;28;20277;-77
2021/11/07 03:36:52;;;;;;;125.40;114.03;;;;;;;6.58;100.00;102041.84;5041063;28;20536;-74
2021/11/07 03:39:21;;;;;;;129.88;117.78;;;;;;;6.56;100.00;102027.94;5046701;28;20135;-75
2021/11/07 03:41:48;;;;;;;161.90;147.25;;;;;;;6.95;100.00;102023.25;5046733;28;20500;-76
2021/11/07 03:44:17;;;;;;;217.98;199.38;;;;;;;7.73;100.00;102014.66;5037823;28;20054;-77
2021/11/07 03:46:47;;;;;;;234.73;215.02;;;;;;;7.99;100.00;101996.13;5035212;28;20060;-77
2021/11/07 03:49:15;;;;;;;207.38;189.88;;;;;;;8.15;100.00;101998.00;5039351;28;20053;-77
2021/11/07 03:51:43;;;;;;;195.13;178.77;;;;;;;8.17;100.00;101998.66;5043350;28;20111;-77
2021/11/07 03:54:12;;;;;;;207.43;191.02;;;;;;;8.16;100.00;101997.03;5037654;28;20396;-77
2021/11/07 03:56:38;;;;;;;196.43;180.40;;;;;;;8.18;100.00;102003.00;5043410;28;20147;-76
2021/11/07 03:59:06;;;;;;;157.55;143.05;;;;;;;8.07;100.00;102016.50;5038750;28;20111;-78
2021/11/07 04:01:35;;;;;;;153.10;139.32;;;;;;;8.02;100.00;102016.97;5038553;28;20545;-76
2021/11/07 04:04:05;;;;;;;149.80;136.70;;;;;;;8.14;100.00;102018.38;5035854;28;20104;-76
2021/11/07 04:06:31;;;;;;;160.82;146.10;;;;;;;8.06;100.00;102020.97;5043088;28;20096;-75
2021/11/07 04:09:00;;;;;;;148.18;135.10;;;;;;;7.85;100.00;102021.34;5047767;28;20068;-78
2021/11/07 04:11:27;;;;;;;147.43;133.57;;;;;;;7.73;100.00;102027.88;5038877;28;20067;-75
2021/11/07 04:13:54;;;;;;;142.52;129.43;;;;;;;7.90;100.00;102019.06;5047244;28;20504;-75
2021/11/07 04:16:20;;;;;;;138.85;125.95;;;;;;;7.70;100.00;102028.19;5038049;28;20474;-77
2021/11/07 04:18:47;;;;;;;137.05;124.00;;;;;;;7.57;100.00;102018.84;5044511;28;20057;-75
2021/11/07 04:21:16;;;;;;;152.77;139.20;;;;;;;7.55;100.00;102035.84;5046977;28;20053;-76
2021/11/07 04:23:43;;;;;;;145.40;132.68;;;;;;;7.62;100.00;102030.75;5038366;28;20143;-77
2021/11/07 04:26:10;;;;;;;141.02;128.15;;;;;;;7.89;100.00;102021.84;5038308;28;20049;-76
2021/11/07 04:28:37;;;;;;;139.20;126.07;;;;;;;7.73;100.00;102025.22;5036957;28;20087;-77
2021/11/07 04:31:05;;;;;;;140.18;126.40;;;;;;;7.31;100.00;102034.66;5044589;28;20048;-80
2021/11/07 04:33:32;;;;;;;138.10;124.90;;;;;;;7.17;100.00;102035.22;5045213;28;20052;-77
2021/11/07 04:35:59;;;;;;;137.50;123.68;;;;;;;7.32;100.00;102049.56;5048511;28;20531;-76
2021/11/07 04:38:28;;;;;;;129.90;117.25;;;;;;;7.41;100.00;102052.25;5043800;28;20110;-78
2021/11/07 04:40:55;;;;;;;164.30;121.30;;;;;;;7.39;100.00;102049.75;5044962;28;20048;-77
2021/11/07 04:43:22;;;;;;;167.88;118.00;;;;;;;7.42;100.00;102049.47;5045091;28;20053;-77
2021/11/07 04:45:49;;;;;;;137.40;108.72;;;;;;;7.45;100.00;102054.44;5045772;28;20052;-76
2021/11/07 04:48:15;;;;;;;120.55;108.45;;;;;;;7.47;100.00;102044.53;5041904;28;20049;-76
2021/11/07 04:50:42;;;;;;;133.90;119.95;;;;;;;7.20;100.00;102039.34;5043658;28;20056;-75
2021/11/07 04:53:12;;;;;;;157.93;133.60;;;;;;;7.21;100.00;102020.69;5046179;28;20122;-76
2021/11/07 04:55:42;;;;;;;140.73;127.53;;;;;;;6.99;100.00;102023.78;5044933;28;20131;-77
2021/11/07 04:58:11;;;;;;;129.98;116.43;;;;;;;6.86;100.00;102027.63;5040308;28;20472;-75
2021/11/07 05:00:40;;;;;;;117.47;105.65;;;;;;;6.93;100.00;102017.31;5041836;28;20056;-76
2021/11/07 05:03:08;;;;;;;116.55;104.60;;;;;;;6.75;100.00;102013.81;5044939;28;20481;-77
2021/11/07 05:05:35;;;;;;;110.50;98.68;;;;;;;6.85;100.00;102012.75;5046146;28;20428;-77
2021/11/07 05:08:03;;;;;;;108.78;97.28;;;;;;;6.95;100.00;102006.59;5038692;28;20118;-76
2021/11/07 05:10:30;;;;;;;118.55;106.22;;;;;;;7.08;100.00;102010.53;5044563;28;20049;-77
2021/11/07 05:12:59;;;;;;;115.40;103.45;;;;;;;7.05;100.00;102005.53;5041310;28;20057;-78
2021/11/07 05:15:25;;;;;;;120.38;106.72;;;;;;;6.75;100.00;102011.19;5039790;28;20057;-76
2021/11/07 05:17:52;;;;;;;112.95;100.50;;;;;;;6.72;100.00;102016.72;5041506;28;20161;-76
2021/11/07 05:20:19;;;;;;;116.22;104.05;;;;;;;6.82;100.00;102026.28;5041240;28;20060;-75
2021/11/07 05:22:46;;;;;;;116.53;104.05;;;;;;;6.84;100.00;102037.53;5044280;28;21338;-77
2021/11/07 05:25:14;;;;;;;120.05;107.72;;;;;;;6.93;100.00;102040.22;5039460;28;20123;-77
2021/11/07 05:27:42;;;;;;;123.28;111.22;;;;;;;6.81;100.00;102045.75;5038507;28;20431;-75
2021/11/07 05:30:12;;;;;;;133.80;120.75;;;;;;;7.07;100.00;102043.19;5043881;28;20131;-77
2021/11/07 05:32:40;;;;;;;126.25;113.57;;;;;;;7.14;100.00;102032.88;5042441;28;20114;-77
2021/11/07 05:35:08;;;;;;;134.55;121.45;;;;;;;7.07;100.00;102034.44;5041880;28;20044;-78
2021/11/07 05:37:36;;;;;;;138.45;124.97;;;;;;;7.16;100.00;102036.16;5044330;28;20118;-75
2021/11/07 05:40:04;;;;;;;119.32;107.53;;;;;;;6.87;100.00;102031.94;5046533;28;20520;-77
2021/11/07 05:42:31;;;;;;;127.55;114.40;;;;;;;7.05;100.00;102031.09;5041838;28;20050;-75
2021/11/07 05:44:57;;;;;;;136.35;122.15;;;;;;;7.28;100.00;102034.97;5042493;28;20079;-75
2021/11/07 05:47:26;;;;;;;142.07;127.97;;;;;;;7.34;100.00;102034.34;5011420;28;20044;-77
2021/11/07 05:49:53;;;;;;;142.63;128.13;;;;;;;7.35;100.00;102037.81;4980064;28;20053;-76
2021/11/07 05:52:20;;;;;;;153.15;138.18;;;;;;;7.68;100.00;102038.06;5043152;28;20138;-78
2021/11/07 05:54:47;;;;;;;163.23;147.30;;;;;;;7.87;100.00;102029.13;5045668;28;20138;-76
2021/11/07 05:57:14;;;;;;;138.23;123.22;;;;;;;7.74;100.00;102024.22;5041357;28;20059;-77
2021/11/07 05:59:41;;;;;;;143.43;127.88;;;;;;;7.89;100.00;102016.56;5045228;28;20053;-76
2021/11/07 06:02:08;;;;;;;146.27;130.50;;;;;;;8.08;100.00;102005.75;5042196;28;20081;-77
2021/11/07 06:04:36;;;;;;;155.93;134.15;;;;;;;8.20;100.00;102016.88;5046127;28;20087;-76
2021/11/07 06:07:03;;;;;;;144.85;128.60;;;;;;;8.11;100.00;102012.53;5043031;28;20057;-78
2021/11/07 06:09:30;;;;;;;147.90;131.95;;;;;;;7.99;100.00;102017.28;5045512;28;20424;-76
2021/11/07 06:11:57;;;;;;;158.93;142.60;;;;;;;8.55;100.00;102021.19;5039459;28;20107;-77
2021/11/07 06:14:24;;;;;;;153.80;137.95;;;;;;;8.89;100.00;102010.50;5045896;28;20052;-75
2021/11/07 06:16:50;;;;;;;152.85;137.95;;;;;;;9.20;100.00;102023.16;5043335;28;20460;-77
2021/11/07 06:19:17;;;;;;;150.48;135.93;;;;;;;9.57;100.00;102021.81;5045795;28;20053;-76
2021/11/07 06:21:46;;;;;;;152.68;138.60;;;;;;;9.71;100.00;102036.22;5045771;28;20489;-76
2021/11/07 06:24:15;;;;;;;163.30;148.52;;;;;;;10.06;100.00;102042.94;5042494;28;20049;-76
2021/11/07 06:26:42;;;;;;;146.55;133.00;;;;;;;10.33;100.00;102044.38;5042971;28;20528;-76
2021/11/07 06:29:09;;;;;;;158.13;143.95;;;;;;;11.03;100.00;102051.50;5037207;28;20398;-75
2021/11/07 06:31:36;;;;;;;163.15;148.73;;;;;;;11.41;100.00;102062.22;5042841;28;20057;-77
2021/11/07 06:34:02;;;;;;;149.98;137.18;;;;;;;11.44;100.00;102043.22;5043427;28;20473;-77
2021/11/07 06:36:29;;;;;;;155.98;142.70;;;;;;;11.39;100.00;102027.78;5044793;28;20057;-78
2021/11/07 06:38:59;;;;;;;153.98;140.38;;;;;;;11.71;100.00;102028.50;5046035;28;20054;-78
2021/11/07 06:41:26;;;;;;;162.60;148.88;;;;;;;12.19;100.00;102017.53;5040758;28;20489;-75
2021/11/07 06:43:54;;;;;;;136.20;124.07;;;;;;;11.99;100.00;102001.28;5038851;28;20119;-76
2021/11/07 06:46:22;;;;;;;127.28;115.53;;;;;;;11.72;100.00;102008.03;5043299;28;20079;-78
2021/11/07 06:48:49;;;;;;;140.27;127.15;;;;;;;12.18;100.00;101999.91;5037738;28;20443;-76
2021/11/07 06:51:17;;;;;;;155.55;141.88;;;;;;;12.64;100.00;102000.44;5043028;28;20481;-81
2021/11/07 06:53:44;;;;;;;145.35;132.02;;;;;;;11.58;100.00;102023.78;5045667;28;20504;-78
2021/11/07 06:56:12;;;;;;;170.65;155.43;;;;;;;11.89;100.00;102034.34;5045286;28;20048;-77
2021/11/07 06:58:39;;;;;;;167.63;153.10;;;;;;;11.87;100.00;102036.34;5043931;28;20477;-77
2021/11/07 07:01:06;;;;;;;156.57;142.85;;;;;;;12.52;100.00;102029.41;5034282;28;20064;-79
2021/11/07 07:03:33;;;;;;;151.63;137.80;;;;;;;12.21;100.00;102040.31;5037362;28;20126;-77
2021/11/07 07:06:00;;;;;;;151.38;137.65;;;;;;;12.32;100.00;102020.38;5041440;28;20405;-78
2021/11/07 07:08:32;;;;;;;167.40;153.00;;;;;;;12.85;100.00;102012.97;5041038;28;20127;-78
2021/11/07 07:11:01;;;;;;;157.35;144.10;;;;;;;12.87;100.00;102012.81;5040481;28;20060;-77
2021/11/07 07:13:34;;;;;;;152.20;139.02;;;;;;;12.83;100.00;101999.84;5042148;28;20108;-78
2021/11/07 07:16:13;;;;;;;169.50;155.43;;;;;;;12.77;100.00;102005.13;5040560;28;20049;-77
2021/11/07 07:18:51;;;;;;;157.80;144.60;;;;;;;12.88;100.00;101995.78;5040860;28;20401;-76
2021/11/07 07:21:33;;;;;;;157.63;144.32;;;;;;;12.96;100.00;101990.31;5041386;28;20052;-78
2021/11/07 07:26:59;;;;;;;156.73;143.07;;;;;;;13.00;100.00;101980.91;5044535;28;20484;-75
2021/11/07 07:29:36;;;;;;;172.82;157.07;;;;;;;12.93;100.00;101969.38;5044216;28;20132;-76
2021/11/07 07:32:23;;;;;;;168.38;153.75;;;;;;;12.90;100.00;101962.59;5045706;28;20144;-78
2021/11/07 07:34:53;;;;;;;166.93;151.85;;;;;;;12.94;100.00;101961.16;5046441;28;20045;-76
2021/11/07 07:37:20;;;;;;;168.27;152.52;;;;;;;13.02;100.00;101970.91;5044372;28;20119;-75
2021/11/07 07:39:47;;;;;;;169.32;154.63;;;;;;;13.02;100.00;101970.91;5046597;28;20049;-77
2021/11/07 07:42:15;;;;;;;168.15;153.05;;;;;;;13.09;100.00;101949.59;5042561;28;20138;-77
2021/11/07 07:44:44;;;;;;;156.00;141.82;;;;;;;13.22;100.00;101949.72;5046906;28;20114;-76
2021/11/07 07:47:11;;;;;;;168.80;153.43;;;;;;;13.36;100.00;101940.81;5047723;28;20500;-78
2021/11/07 07:49:38;;;;;;;161.68;147.25;;;;;;;13.10;100.00;101938.75;5044824;28;20111;-77
2021/11/07 07:52:05;;;;;;;166.38;151.18;;;;;;;13.16;100.00;101935.31;5046504;28;20049;-75
2021/11/07 07:54:32;;;;;;;167.23;151.98;;;;;;;13.26;100.00;101938.50;5046011;28;20053;-76
2021/11/07 07:56:59;;;;;;;157.93;143.15;;;;;;;13.15;100.00;101939.00;5043187;28;20368;-77
2021/11/07 07:59:26;;;;;;;158.82;143.93;;;;;;;13.07;100.00;101939.13;5049548;28;20056;-77
2021/11/07 08:01:58;;;;;;;175.82;158.82;;;;;;;13.16;100.00;101935.31;5045847;28;20060;-77
2021/11/07 08:04:24;;;;;;;167.02;152.77;;;;;;;13.01;100.00;101946.06;5046786;28;20392;-75
2021/11/07 08:06:51;;;;;;;163.43;147.75;;;;;;;13.12;100.00;101946.56;5048182;28;20053;-77
2021/11/07 08:09:18;;;;;;;155.80;140.85;;;;;;;13.23;100.00;101946.88;5046967;28;20056;-76
2021/11/07 08:11:45;;;;;;;158.60;143.63;;;;;;;13.34;100.00;101945.53;5048621;28;20114;-77
2021/11/07 08:14:11;;;;;;;160.93;144.65;;;;;;;13.25;100.00;101941.34;5048325;28;20049;-77
2021/11/07 08:16:38;;;;;;;157.32;142.60;;;;;;;13.15;100.00;101933.66;5048660;28;20053;-77
2021/11/07 08:19:07;;;;;;;159.73;144.05;;;;;;;13.22;100.00;101929.22;5048679;28;20049;-76
2021/11/07 08:21:38;;;;;;;150.95;136.00;;;;;;;13.37;100.00;101931.78;5047122;28;20052;-79
2021/11/07 08:24:05;;;;;;;146.77;131.55;;;;;;;13.27;100.00;101933.97;5046734;28;20143;-79
2021/11/07 08:26:33;;;;;;;152.98;137.10;;;;;;;13.26;100.00;101932.34;5048245;28;20456;-77
2021/11/07 08:29:00;;;;;;;154.95;132.13;;;;;;;13.18;100.00;101927.94;5047636;28;20148;-79
2021/11/07 08:31:28;;;;;;;150.27;134.43;;;;;;;13.25;100.00;101936.00;5047424;28;20079;-75
2021/11/07 08:33:56;;;;;;;157.55;142.15;;;;;;;13.46;100.00;101929.78;5042456;28;20088;-77
2021/11/07 08:36:30;;;;;;;164.52;148.90;;;;;;;13.56;100.00;101918.78;5047341;28;20098;-78
2021/11/07 08:39:00;;;;;;;156.65;141.32;;;;;;;13.56;100.00;101916.13;5047453;28;20123;-77
2021/11/07 08:41:29;;;;;;;138.10;123.57;;;;;;;13.40;100.00;101915.38;5044496;28;20135;-77
2021/11/07 09:00:27;;;;;;;143.35;129.57;;;;;;;14.23;100.00;101917.25;5040831;28;20052;-79
2021/11/07 09:05:48;;;;;;;133.63;120.63;;;;;;;14.41;100.00;101901.47;5043648;28;20049;-76
2021/11/07 09:08:18;;;;;;;127.75;115.07;;;;;;;14.63;100.00;101891.44;5045355;28;20060;-77
2021/11/07 09:10:47;;;;;;;130.32;118.03;;;;;;;14.49;100.00;101889.75;5045063;28;20089;-78
2021/11/07 09:13:15;;;;;;;129.18;116.78;;;;;;;14.34;100.00;101885.41;5045144;28;20060;-77
2021/11/07 09:15:45;;;;;;;136.30;123.55;;;;;;;14.26;100.00;101885.59;5043380;28;20424;-78
2021/11/07 09:18:13;;;;;;;136.00;123.15;;;;;;;14.09;100.00;101882.44;5037910;28;20056;-80
2021/11/07 09:20:44;;;;;;;131.05;118.75;;;;;;;14.18;100.00;101883.91;5047184;28;20444;-78
2021/11/07 09:23:16;;;;;;;134.47;121.40;;;;;;;14.40;100.00;101879.25;5047231;28;20055;-77
2021/11/07 09:25:48;;;;;;;143.27;130.07;;;;;;;14.61;100.00;101874.78;5045332;28;20651;-78
2021/11/07 09:28:19;;;;;;;137.40;124.18;;;;;;;14.59;100.00;101875.00;5038463;28;20395;-77
2021/11/07 09:30:54;;;;;;;136.85;124.72;;;;;;;14.68;100.00;101872.13;5044195;28;20413;-79
2021/11/07 09:33:26;;;;;;;131.02;118.40;;;;;;;14.67;100.00;101868.59;5043906;28;20059;-76
2021/11/07 09:36:11;;;;;;;143.57;130.07;;;;;;;14.51;100.00;101872.50;5047394;28;20087;-76
2021/11/07 09:38:46;;;;;;;151.00;137.90;;;;;;;14.59;100.00;101861.63;5043242;28;20057;-77
2021/11/07 09:41:21;;;;;;;133.23;121.35;;;;;;;14.61;100.00;101867.59;5046355;28;20053;-77
2021/11/07 09:43:50;;;;;;;134.45;121.97;;;;;;;14.53;100.00;101867.78;5044236;28;20425;-76
2021/11/07 09:46:31;;;;;;;129.88;117.88;;;;;;;14.61;100.00;101864.94;5042416;28;20052;-77
2021/11/07 09:49:01;;;;;;;146.18;132.60;;;;;;;14.65;100.00;101860.00;5042678;28;20187;-77
2021/11/07 09:51:33;;;;;;;145.27;131.32;;;;;;;14.57;100.00;101847.63;5040825;28;20045;-77
2021/11/07 09:54:00;;;;;;;136.18;123.28;;;;;;;14.59;100.00;101837.56;5039562;28;20056;-76
2021/11/07 09:56:28;;;;;;;140.02;126.30;;;;;;;14.64;100.00;101835.09;5046826;28;20432;-76
2021/11/07 09:58:57;;;;;;;140.43;126.90;;;;;;;14.70;100.00;101822.75;5041481;28;20059;-77
2021/11/07 10:01:25;;;;;;;131.02;118.43;;;;;;;14.88;100.00;101811.41;5047504;28;20083;-75
2021/11/07 10:03:53;;;;;;;131.07;118.50;;;;;;;14.97;100.00;101801.31;5045857;28;20499;-77
2021/11/07 10:06:26;;;;;;;130.13;117.35;;;;;;;15.14;100.00;101791.81;5047490;28;20053;-79
2021/11/07 10:08:53;;;;;;;137.95;124.03;;;;;;;15.14;100.00;101796.38;5044026;28;20057;-79
2021/11/07 10:11:20;;;;;;;134.70;122.03;;;;;;;15.14;100.00;101791.00;5045976;28;20130;-77
2021/11/07 10:14:15;;;;;;;134.18;121.13;;;;;;;15.06;100.00;101781.34;5048021;28;20416;-77
2021/11/07 10:16:46;;;;;;;136.85;123.07;;;;;;;14.98;100.00;101778.91;5030544;28;20397;-77
2021/11/07 10:19:20;;;;;;;132.63;120.03;;;;;;;14.99;100.00;101775.19;5052201;28;20053;-76
2021/11/07 10:21:49;;;;;;;148.77;135.30;;;;;;;15.03;100.00;101768.38;5049365;28;20053;-77
2021/11/07 10:24:19;;;;;;;140.40;126.07;;;;;;;15.04;100.00;101762.84;5047165;28;20049;-77
2021/11/07 10:26:53;;;;;;;134.32;120.47;;;;;;;15.09;100.00;101773.72;5050029;28;20072;-80
2021/11/07 10:29:30;;;;;;;131.73;118.40;;;;;;;15.03;100.00;101768.38;5044725;28;20491;-76
2021/11/07 10:32:02;;;;;;;133.80;120.53;;;;;;;15.06;100.00;101743.88;5048955;28;20050;-77
2021/11/07 10:34:51;;;;;;;131.75;118.63;;;;;;;15.02;100.00;101748.84;5052075;28;20520;-78
2021/11/07 10:37:36;;;;;;;125.57;113.18;;;;;;;14.95;100.00;101740.03;5045903;28;20130;-76
2021/11/07 10:40:32;;;;;;;131.02;117.68;;;;;;;15.05;100.00;101737.72;5050182;28;20045;-78
2021/11/07 10:54:21;;;;;;;119.53;109.65;;;;;;;15.25;100.00;101734.97;5049400;28;20463;-76
2021/11/07 10:57:14;;;;;;;119.70;110.35;;;;;;;15.29;100.00;101722.81;5048160;28;20057;-76
2021/11/07 10:59:41;;;;;;;129.15;118.60;;;;;;;15.42;100.00;101729.94;5048923;28;20088;-76
2021/11/07 11:02:38;;;;;;;125.82;115.70;;;;;;;15.61;100.00;101728.19;5049406;28;20119;-78
2021/11/07 11:05:07;;;;;;;110.40;101.00;;;;;;;15.49;100.00;101716.53;4340951;28;10001376;-77
2021/11/07 11:07:48;;;;;;;111.40;102.50;;;;;;;15.48;100.00;101705.00;5038517;28;20057;-80
2021/11/07 11:10:19;;;;;;;105.78;97.00;;;;;;;15.64;100.00;101703.66;5036769;28;20053;-78
2021/11/07 11:13:06;;;;;;;101.57;93.25;;;;;;;15.70;100.00;101707.38;5037963;28;20138;-76
2021/11/07 11:15:39;;;;;;;100.65;92.32;;;;;;;15.66;100.00;101698.09;5035474;28;20072;-79
2021/11/07 11:18:34;;;;;;;98.38;90.57;;;;;;;15.79;100.00;101690.84;5038404;28;20187;-79
2021/11/07 11:21:27;;;;;;;100.45;91.78;;;;;;;15.90;100.00;101667.06;5038981;28;20053;-77
2021/11/07 11:32:16;;;;;;;81.38;74.85;;;;;;;17.72;100.00;101648.44;5045876;28;20494;-79
2021/11/07 11:34:49;;;;;;;77.30;71.05;;;;;;;18.76;100.00;101642.53;5049495;28;20060;-77
2021/11/07 11:37:21;;;;;;;64.22;53.17;;;;;;;18.20;100.00;101644.78;5039646;28;20477;-78
2021/11/07 11:39:54;;;;;;;;;;;;;;;18.15;100.00;101644.66;5040270;28;20061;-77
2021/11/07 11:42:26;;;;;;;61.88;56.67;;;;;;;18.47;100.00;101652.38;5044811;28;19929;-77
2021/11/07 11:44:56;;;;;;;57.22;52.33;;;;;;;19.07;100.00;101643.94;5048259;28;20053;-76
2021/11/07 11:47:41;;;;;;;62.67;57.45;;;;;;;19.05;100.00;101637.16;5045161;28;20053;-77
2021/11/07 11:53:15;;;;;;;52.58;48.10;;;;;;;18.81;100.00;101633.72;5037106;28;20516;-77
2021/11/07 11:55:47;;;;;;;60.97;55.75;;;;;;;18.77;100.00;101636.09;5044009;28;20052;-76